createdAt,value
2017-08-11T00:00:12.462Z,96.30
2017-08-11T00:02:39.582Z,96.20
2017-08-11T00:05:05.994Z,96.20
2017-08-11T00:07:32.366Z,96.30
2017-08-11T00:09:58.851Z,96.40
2017-08-11T00:12:25.254Z,96.40
2017-08-11T00:15:09.603Z,96.70
2017-08-11T00:17:36.868Z,96.20
2017-08-11T00:20:03.295Z,96.20
2017-08-11T00:22:30.381Z,96.40
2017-08-11T00:24:56.764Z,96.40
2017-08-11T00:27:23.885Z,96.40
2017-08-11T00:29:51.397Z,96.60
2017-08-11T00:32:17.856Z,96.30
2017-08-11T00:34:44.288Z,96.20
2017-08-11T00:37:10.719Z,96.20
2017-08-11T00:39:37.269Z,96.10
2017-08-11T00:42:04.570Z,96.50
2017-08-11T00:44:31.871Z,96.50
2017-08-11T00:46:58.464Z,96.70
2017-08-11T00:49:25.235Z,96.80
2017-08-11T00:51:52.023Z,96.90
2017-08-11T00:54:18.400Z,96.80
2017-08-11T00:56:45.080Z,96.70
2017-08-11T00:59:12.219Z,96.70
2017-08-11T01:01:38.814Z,96.70
2017-08-11T01:04:05.259Z,96.80
2017-08-11T01:06:31.637Z,96.90
2017-08-11T01:08:58.787Z,97.00
2017-08-11T01:11:25.221Z,97.00
2017-08-11T01:13:51.623Z,97.00
2017-08-11T01:16:17.960Z,97.10
2017-08-11T01:18:44.371Z,97.20
2017-08-11T01:21:10.755Z,97.10
2017-08-11T01:23:37.414Z,97.30
2017-08-11T01:26:03.825Z,97.50
2017-08-11T01:28:30.201Z,97.60
2017-08-11T01:30:56.618Z,97.60
2017-08-11T01:33:22.996Z,97.50
2017-08-11T01:35:49.386Z,97.70
2017-08-11T01:38:15.801Z,97.80
2017-08-11T01:40:42.162Z,97.80
2017-08-11T01:43:08.549Z,97.80
2017-08-11T01:45:35.231Z,97.90
2017-08-11T01:48:01.606Z,98.00
2017-08-11T01:50:28.033Z,97.80
2017-08-11T01:52:54.407Z,98.10
2017-08-11T01:55:20.782Z,98.20
2017-08-11T01:57:47.134Z,98.20
2017-08-11T02:00:13.521Z,98.20
2017-08-11T02:02:40.623Z,98.20
2017-08-11T02:05:07.136Z,98.20
2017-08-11T02:07:33.552Z,98.30
2017-08-11T02:10:00.004Z,98.40
2017-08-11T02:12:26.410Z,98.50
2017-08-11T02:14:54.615Z,98.70
2017-08-11T02:17:21.109Z,98.70
2017-08-11T02:19:47.468Z,98.70
2017-08-11T02:22:13.824Z,98.70
2017-08-11T02:24:40.484Z,98.80
2017-08-11T02:27:06.851Z,99.00
2017-08-11T02:29:33.226Z,98.90
2017-08-11T02:31:59.553Z,98.80
2017-08-11T02:34:25.903Z,98.70
2017-08-11T02:36:52.256Z,98.70
2017-08-11T02:39:18.836Z,98.70
2017-08-11T02:41:45.216Z,98.70
2017-08-11T02:44:11.597Z,98.80
2017-08-11T02:46:38.305Z,98.80
2017-08-11T02:49:04.680Z,98.70
2017-08-11T02:51:31.036Z,98.70
2017-08-11T02:53:57.430Z,98.70
2017-08-11T02:56:23.796Z,98.70
2017-08-11T02:58:50.854Z,98.70
2017-08-11T03:01:17.265Z,98.40
2017-08-11T03:03:44.726Z,98.20
2017-08-11T03:06:11.080Z,98.20
2017-08-11T03:08:37.442Z,98.30
2017-08-11T03:11:03.850Z,98.40
2017-08-11T03:13:30.235Z,98.60
2017-08-11T03:15:56.598Z,98.60
2017-08-11T03:18:22.954Z,98.60
2017-08-11T03:20:49.321Z,98.40
2017-08-11T03:23:15.672Z,98.40
2017-08-11T03:25:42.401Z,98.30
2017-08-11T03:28:08.762Z,98.30
2017-08-11T03:30:35.135Z,98.30
2017-08-11T03:33:01.514Z,98.50
2017-08-11T03:35:27.887Z,98.50
2017-08-11T03:37:54.283Z,98.50
2017-08-11T03:40:20.630Z,98.70
2017-08-11T03:42:46.979Z,98.90
2017-08-11T03:45:13.420Z,99.10
2017-08-11T03:47:39.806Z,99.00
2017-08-11T03:50:06.185Z,99.10
2017-08-11T03:52:39.743Z,99.10
2017-08-11T03:55:06.105Z,99.20
2017-08-11T03:57:32.435Z,98.90
2017-08-11T03:59:58.846Z,99.00
2017-08-11T04:02:25.401Z,99.00
2017-08-11T04:04:51.780Z,99.00
2017-08-11T04:07:18.271Z,99.00
2017-08-11T04:09:44.688Z,98.90
2017-08-11T04:12:11.042Z,98.70
2017-08-11T04:14:38.149Z,98.70
2017-08-11T04:17:04.505Z,98.70
2017-08-11T04:19:31.138Z,98.70
2017-08-11T04:21:57.462Z,98.60
2017-08-11T04:24:23.876Z,98.50
2017-08-11T04:26:51.703Z,98.40
2017-08-11T04:29:19.122Z,98.30
2017-08-11T04:31:46.487Z,98.40
2017-08-11T04:34:13.402Z,98.40
2017-08-11T04:36:40.623Z,98.50
2017-08-11T04:39:07.851Z,98.40
2017-08-11T04:41:35.676Z,98.30
2017-08-11T04:44:02.127Z,98.20
2017-08-11T04:46:29.201Z,98.10
2017-08-11T04:48:55.583Z,98.10
2017-08-11T04:51:21.921Z,97.90
2017-08-11T04:53:48.563Z,97.90
2017-08-11T04:56:15.638Z,98.40
2017-08-11T04:58:41.967Z,98.10
2017-08-11T05:01:08.344Z,98.00
2017-08-11T05:03:34.745Z,98.10
2017-08-11T05:06:01.111Z,98.30
2017-08-11T05:08:27.514Z,99.10
2017-08-11T05:10:54.295Z,99.30
2017-08-11T05:13:21.408Z,98.70
2017-08-11T05:15:47.984Z,98.90
2017-08-11T05:18:14.378Z,98.80
2017-08-11T05:20:40.738Z,98.10
2017-08-11T05:23:07.841Z,97.00
2017-08-11T05:25:34.223Z,97.00
2017-08-11T05:28:00.607Z,97.20
2017-08-11T05:30:26.948Z,97.50
2017-08-11T05:32:53.370Z,97.60
2017-08-11T05:35:19.726Z,97.50
2017-08-11T05:37:46.476Z,97.80
2017-08-11T05:40:13.598Z,98.00
2017-08-11T05:42:39.985Z,98.00
2017-08-11T05:45:06.332Z,97.90
2017-08-11T05:47:32.693Z,98.20
2017-08-11T05:49:59.097Z,97.70
2017-08-11T05:52:25.449Z,97.70
2017-08-11T05:54:51.830Z,97.80
2017-08-11T05:57:18.190Z,97.20
2017-08-11T05:59:44.975Z,97.00
2017-08-11T06:02:12.159Z,96.30
2017-08-11T06:04:38.549Z,96.30
2017-08-11T06:07:05.699Z,96.60
2017-08-11T06:09:32.810Z,96.80
2017-08-11T06:11:59.239Z,96.80
2017-08-11T06:14:25.595Z,96.60
2017-08-11T06:16:51.977Z,96.60
2017-08-11T06:19:18.341Z,96.40
2017-08-11T06:21:44.711Z,96.60
2017-08-11T06:24:11.811Z,97.20
2017-08-11T06:26:38.591Z,97.20
2017-08-11T06:29:04.960Z,97.50
2017-08-11T06:31:31.304Z,97.60
2017-08-11T06:33:57.694Z,97.10
2017-08-11T06:36:24.053Z,96.80
2017-08-11T06:38:50.442Z,96.50
2017-08-11T06:41:16.815Z,96.60
2017-08-11T06:43:43.220Z,97.00
2017-08-11T06:46:09.619Z,97.00
2017-08-11T06:48:36.350Z,97.20
2017-08-11T06:51:02.679Z,97.10
2017-08-11T06:53:29.045Z,97.20
2017-08-11T06:55:55.450Z,97.00
2017-08-11T06:58:21.895Z,96.60
2017-08-11T07:00:48.278Z,96.50
2017-08-11T07:03:14.641Z,96.70
2017-08-11T07:05:41.055Z,96.80
2017-08-11T07:08:07.425Z,97.00
2017-08-11T07:10:33.921Z,96.70
2017-08-11T07:13:00.279Z,96.90
2017-08-11T07:15:26.950Z,97.00
2017-08-11T07:17:54.036Z,97.30
2017-08-11T07:20:20.391Z,97.40
2017-08-11T07:22:46.758Z,97.30
2017-08-11T07:25:13.157Z,97.20
2017-08-11T07:27:39.542Z,97.20
2017-08-11T07:30:05.950Z,97.30
2017-08-11T07:32:32.322Z,97.10
2017-08-11T07:34:58.695Z,97.20
2017-08-11T07:37:25.159Z,97.60
2017-08-11T07:39:52.897Z,97.60
2017-08-11T07:42:20.433Z,97.30
2017-08-11T07:44:47.513Z,97.40
2017-08-11T07:47:15.240Z,97.50
2017-08-11T07:49:43.368Z,97.50
2017-08-11T07:52:09.852Z,97.50
2017-08-11T07:54:36.533Z,97.40
2017-08-11T07:57:03.691Z,97.30
2017-08-11T07:59:30.656Z,97.30
2017-08-11T08:01:57.753Z,97.40
2017-08-11T08:04:24.254Z,97.30
2017-08-11T08:06:52.439Z,97.30
2017-08-11T08:09:18.917Z,97.10
2017-08-11T08:11:45.474Z,97.30
2017-08-11T08:14:11.999Z,97.40
2017-08-11T08:16:42.331Z,97.50
2017-08-11T08:19:08.825Z,97.40
2017-08-11T08:21:35.264Z,97.40
2017-08-11T08:24:01.702Z,97.50
2017-08-11T08:26:28.261Z,97.60
2017-08-11T08:28:54.742Z,97.50
2017-08-11T08:31:21.432Z,97.40
2017-08-11T08:33:48.112Z,97.30
2017-08-11T08:36:14.529Z,97.20
2017-08-11T08:38:41.344Z,96.80
2017-08-11T08:41:07.750Z,96.30
2017-08-11T08:43:34.121Z,95.70
2017-08-11T08:46:00.661Z,95.90
2017-08-11T08:48:27.139Z,96.20
2017-08-11T08:50:53.595Z,96.30
2017-08-11T08:53:20.724Z,96.70
2017-08-11T08:55:47.124Z,96.70
2017-08-11T08:58:13.476Z,96.80
2017-08-11T09:00:40.230Z,97.20
2017-08-11T09:03:06.667Z,97.50
2017-08-11T09:05:33.809Z,97.40
2017-08-11T09:08:00.244Z,97.40
2017-08-11T09:10:26.652Z,97.60
2017-08-11T09:12:53.042Z,97.60
2017-08-11T09:15:19.398Z,97.70
2017-08-11T09:17:45.803Z,97.70
2017-08-11T09:20:12.240Z,97.80
2017-08-11T09:22:38.949Z,97.90
2017-08-11T09:25:17.536Z,98.00
2017-08-11T09:27:56.864Z,97.80
2017-08-11T09:30:35.741Z,97.80
2017-08-11T09:33:14.385Z,97.70
2017-08-11T09:35:53.101Z,97.60
2017-08-11T09:38:19.457Z,97.50
2017-08-11T09:40:45.864Z,97.60
2017-08-11T09:43:12.531Z,97.60
2017-08-11T09:45:38.900Z,97.60
2017-08-11T09:48:05.281Z,97.70
2017-08-11T09:50:31.658Z,97.40
2017-08-11T09:52:58.022Z,97.60
2017-08-11T09:55:24.416Z,97.80
2017-08-11T09:57:50.762Z,97.60
2017-08-11T10:00:17.173Z,97.80
2017-08-11T10:02:43.625Z,97.90
2017-08-11T10:05:10.324Z,97.90
2017-08-11T10:07:37.513Z,98.00
2017-08-11T10:10:04.000Z,98.00
2017-08-11T10:12:31.195Z,98.60
2017-08-11T10:14:57.657Z,98.50
2017-08-11T10:17:24.088Z,98.60
2017-08-11T10:19:51.226Z,98.40
2017-08-11T10:22:17.586Z,98.50
2017-08-11T10:24:44.014Z,98.40
2017-08-11T10:27:13.098Z,98.40
2017-08-11T10:29:39.517Z,98.40
2017-08-11T10:32:06.353Z,98.40
2017-08-11T10:34:32.749Z,98.20
2017-08-11T10:36:59.174Z,98.00
2017-08-11T10:39:25.667Z,98.00
2017-08-11T10:41:52.122Z,98.10
2017-08-11T10:44:18.857Z,98.20
2017-08-11T10:46:45.279Z,98.20
2017-08-11T10:49:12.436Z,98.30
2017-08-11T10:51:39.590Z,98.00
2017-08-11T10:54:06.770Z,98.10
2017-08-11T10:56:33.172Z,98.10
2017-08-11T10:59:00.116Z,98.30
2017-08-11T11:01:26.537Z,98.40
2017-08-11T11:03:53.631Z,98.70
2017-08-11T11:06:20.078Z,98.60
2017-08-11T11:08:46.483Z,98.90
2017-08-11T11:11:12.856Z,98.70
2017-08-11T11:13:39.226Z,98.70
2017-08-11T11:16:05.712Z,98.70
2017-08-11T11:18:32.897Z,98.70
2017-08-11T11:20:59.711Z,98.70
2017-08-11T11:23:26.136Z,98.00
2017-08-11T11:25:52.637Z,98.10
2017-08-11T11:28:18.990Z,98.30
2017-08-11T11:30:45.491Z,98.20
2017-08-11T11:33:11.868Z,97.90
2017-08-11T11:35:38.293Z,97.70
2017-08-11T11:38:05.889Z,97.30
2017-08-11T11:40:32.250Z,97.30
2017-08-11T11:42:58.626Z,97.30
2017-08-11T11:45:25.705Z,97.40
2017-08-11T11:47:52.144Z,97.20
2017-08-11T11:50:18.647Z,97.30
2017-08-11T11:52:45.026Z,97.30
2017-08-11T11:55:11.414Z,97.30
2017-08-11T11:57:37.869Z,97.30
2017-08-11T12:00:04.586Z,96.80
2017-08-11T12:02:31.021Z,95.90
2017-08-11T12:04:57.383Z,95.50
2017-08-11T12:07:23.759Z,95.70
2017-08-11T12:09:50.330Z,95.70
2017-08-11T12:12:16.758Z,95.40
2017-08-11T12:14:43.152Z,95.30
2017-08-11T12:17:09.564Z,95.70
2017-08-11T12:19:36.052Z,96.00
2017-08-11T12:22:02.887Z,96.30
2017-08-11T12:24:29.313Z,96.10
2017-08-11T12:26:56.027Z,96.20
2017-08-11T12:29:22.409Z,96.50
2017-08-11T12:31:48.771Z,96.80
2017-08-11T12:34:15.168Z,97.40
2017-08-11T12:36:41.600Z,97.70
2017-08-11T12:39:08.019Z,98.20
2017-08-11T12:41:34.476Z,97.90
2017-08-11T12:44:00.902Z,97.80
2017-08-11T12:46:27.348Z,98.10
2017-08-11T12:48:54.218Z,98.30
2017-08-11T12:51:20.660Z,98.40
2017-08-11T12:53:47.112Z,98.70
2017-08-11T12:56:13.547Z,98.70
2017-08-11T12:58:40.225Z,98.80
2017-08-11T13:01:06.669Z,98.90
2017-08-11T13:03:33.081Z,99.00
2017-08-11T13:05:59.614Z,99.00
2017-08-11T13:08:26.097Z,99.00
2017-08-11T13:10:52.507Z,99.10
2017-08-11T13:13:18.936Z,99.10
2017-08-11T13:15:45.398Z,99.10
2017-08-11T13:18:11.780Z,99.00
2017-08-11T13:20:38.888Z,98.80
2017-08-11T13:23:05.697Z,98.70
2017-08-11T13:25:32.835Z,98.30
2017-08-11T13:28:07.378Z,98.40
2017-08-11T13:30:33.821Z,98.40
2017-08-11T13:33:00.268Z,98.20
2017-08-11T13:35:26.819Z,98.00
2017-08-11T13:37:55.920Z,97.90
2017-08-11T13:40:23.064Z,98.40
2017-08-11T13:42:49.415Z,98.40
2017-08-11T13:45:16.073Z,98.40
2017-08-11T13:47:42.461Z,98.60
2017-08-11T13:50:08.850Z,98.80
2017-08-11T13:52:35.197Z,98.80
2017-08-11T13:55:01.583Z,99.10
2017-08-11T13:57:27.969Z,99.10
2017-08-11T13:59:54.384Z,99.20
2017-08-11T14:02:20.816Z,98.70
2017-08-11T14:04:47.198Z,98.70
2017-08-11T14:07:13.573Z,98.80
2017-08-11T14:09:39.956Z,98.80
2017-08-11T14:12:07.077Z,98.50
2017-08-11T14:14:33.509Z,98.50
2017-08-11T14:16:59.908Z,98.40
2017-08-11T14:19:26.273Z,98.40
2017-08-11T14:21:52.766Z,98.10
2017-08-11T14:24:25.499Z,97.90
2017-08-11T14:26:58.975Z,97.60
2017-08-11T14:29:25.650Z,97.60
2017-08-11T14:31:52.749Z,97.40
2017-08-11T14:34:19.138Z,97.40
2017-08-11T14:36:46.295Z,97.30
2017-08-11T14:39:12.685Z,97.30
2017-08-11T14:41:39.051Z,97.50
2017-08-11T14:44:05.446Z,97.40
2017-08-11T14:46:32.201Z,97.40
2017-08-11T14:48:59.319Z,96.90
2017-08-11T14:51:25.680Z,96.90
2017-08-11T14:53:52.795Z,97.00
2017-08-11T14:56:19.155Z,97.00
2017-08-11T14:58:45.579Z,97.10
2017-08-11T15:01:11.914Z,97.40
2017-08-11T15:03:38.285Z,97.40
2017-08-11T15:06:04.624Z,96.70
2017-08-11T15:08:31.040Z,96.60
2017-08-11T15:10:57.406Z,96.10
2017-08-11T15:13:23.771Z,95.70
2017-08-11T15:15:50.129Z,96.10
2017-08-11T15:18:16.486Z,96.80
2017-08-11T15:20:43.155Z,97.30
2017-08-11T15:23:10.228Z,97.40
2017-08-11T15:25:36.591Z,97.40
2017-08-11T15:28:02.964Z,96.40
2017-08-11T15:30:30.090Z,96.00
2017-08-11T15:32:56.481Z,96.00
2017-08-11T15:35:22.892Z,95.00
2017-08-11T15:37:49.983Z,95.30
2017-08-11T15:40:16.339Z,95.20
2017-08-11T15:42:43.082Z,94.00
2017-08-11T15:45:10.207Z,92.20
2017-08-11T15:47:36.550Z,91.90
2017-08-11T15:50:03.083Z,91.70
2017-08-11T15:52:29.431Z,91.20
2017-08-11T15:54:56.543Z,91.40
2017-08-11T15:57:22.893Z,91.40
2017-08-11T15:59:50.015Z,89.90
2017-08-11T16:02:16.378Z,89.90
2017-08-11T16:04:43.066Z,87.10
2017-08-11T16:07:09.419Z,83.00
2017-08-11T16:09:35.821Z,81.60
2017-08-11T16:12:02.213Z,81.10
2017-08-11T16:14:29.324Z,79.80
2017-08-11T16:16:55.737Z,79.80
2017-08-11T16:19:22.187Z,80.20
2017-08-11T16:21:48.612Z,82.00
2017-08-11T16:24:15.010Z,83.70
2017-08-11T16:26:41.457Z,84.40
2017-08-11T16:29:07.857Z,85.50
2017-08-11T16:31:34.572Z,86.40
2017-08-11T16:34:00.964Z,85.10
2017-08-11T16:36:27.328Z,84.50
2017-08-11T16:38:53.679Z,86.30
2017-08-11T16:41:20.831Z,83.90
2017-08-11T16:43:47.244Z,83.90
2017-08-11T16:46:13.655Z,82.40
2017-08-11T16:48:40.068Z,81.90
2017-08-11T16:51:06.477Z,82.70
2017-08-11T16:53:33.183Z,81.40
2017-08-11T16:56:00.329Z,81.20
2017-08-11T16:58:26.737Z,81.10
2017-08-11T17:00:53.162Z,83.10
2017-08-11T17:03:19.532Z,81.60
2017-08-11T17:05:45.953Z,80.20
2017-08-11T17:08:13.151Z,78.70
2017-08-11T17:10:39.552Z,78.70
2017-08-11T17:13:05.974Z,79.30
2017-08-11T17:15:32.423Z,79.70
2017-08-11T17:17:58.821Z,77.60
2017-08-11T17:20:25.730Z,78.40
2017-08-11T17:22:53.688Z,79.70
2017-08-11T17:25:20.093Z,79.30
2017-08-11T17:27:46.825Z,80.00
2017-08-11T17:30:13.259Z,80.00
2017-08-11T17:32:40.168Z,80.90
2017-08-11T17:35:07.270Z,82.00
2017-08-11T17:37:33.767Z,82.00
2017-08-11T17:40:00.890Z,85.20
2017-08-11T17:42:27.746Z,85.20
2017-08-11T17:44:54.194Z,86.60
2017-08-11T17:47:20.611Z,87.90
2017-08-11T17:49:47.143Z,89.50
2017-08-11T17:52:14.465Z,90.20
2017-08-11T17:54:41.674Z,90.70
2017-08-11T17:57:08.139Z,90.70
2017-08-11T17:59:35.626Z,91.80
2017-08-11T18:02:02.828Z,91.90
2017-08-11T18:04:29.293Z,91.90
2017-08-11T18:07:03.498Z,92.40
2017-08-11T18:09:29.898Z,92.40
2017-08-11T18:11:56.393Z,92.60
2017-08-11T18:14:22.819Z,92.90
2017-08-11T18:16:49.302Z,93.20
2017-08-11T18:19:15.764Z,93.50
2017-08-11T18:21:42.271Z,93.70
2017-08-11T18:24:08.706Z,93.80
2017-08-11T18:26:35.753Z,93.90
2017-08-11T18:29:02.268Z,94.20
2017-08-11T18:31:28.708Z,94.30
2017-08-11T18:33:55.202Z,94.60
2017-08-11T18:36:22.721Z,94.70
2017-08-11T18:38:49.207Z,94.80
2017-08-11T18:41:15.617Z,95.00
2017-08-11T18:43:42.217Z,95.20
2017-08-11T18:46:08.756Z,95.40
2017-08-11T18:48:35.168Z,95.50
2017-08-11T18:51:01.637Z,95.60
2017-08-11T18:53:28.385Z,95.70
2017-08-11T18:55:54.863Z,95.80
2017-08-11T18:58:21.317Z,95.90
2017-08-11T19:00:48.521Z,96.20
2017-08-11T19:03:15.026Z,96.10
2017-08-11T19:05:41.545Z,96.20
2017-08-11T19:08:08.020Z,96.30
2017-08-11T19:10:34.485Z,96.30
2017-08-11T19:13:00.958Z,96.40
2017-08-11T19:15:28.632Z,96.70
2017-08-11T19:17:55.040Z,96.70
2017-08-11T19:20:22.431Z,96.80
2017-08-11T19:22:48.987Z,96.80
2017-08-11T19:25:15.446Z,96.80
2017-08-11T19:27:41.824Z,96.90
2017-08-11T19:30:08.199Z,97.00
2017-08-11T19:32:34.610Z,97.10
2017-08-11T19:35:01.047Z,97.20
2017-08-11T19:37:27.673Z,97.30
2017-08-11T19:39:54.246Z,97.30
2017-08-11T19:42:20.670Z,97.20
2017-08-11T19:44:47.443Z,97.20
2017-08-11T19:47:14.482Z,97.20
2017-08-11T19:49:40.915Z,97.20
2017-08-11T19:52:07.397Z,97.20
2017-08-11T19:54:33.881Z,97.40
2017-08-11T19:57:00.369Z,97.40
2017-08-11T19:59:26.858Z,97.50
2017-08-11T20:01:53.280Z,97.60
2017-08-11T20:04:20.573Z,97.70
2017-08-11T20:06:46.931Z,97.70
2017-08-11T20:09:13.313Z,97.60
2017-08-11T20:11:39.916Z,97.90
2017-08-11T20:14:06.337Z,97.70
2017-08-11T20:16:33.479Z,97.80
2017-08-11T20:19:00.357Z,97.80
2017-08-11T20:21:26.775Z,97.80
2017-08-11T20:23:53.195Z,97.70
2017-08-11T20:26:20.341Z,97.90
2017-08-11T20:28:46.826Z,97.90
2017-08-11T20:31:13.255Z,97.90
2017-08-11T20:33:39.679Z,97.90
2017-08-11T20:36:06.112Z,97.80
2017-08-11T20:38:32.571Z,97.80
2017-08-11T20:40:59.007Z,97.80
2017-08-11T20:43:26.188Z,97.80
2017-08-11T20:45:52.682Z,97.80
2017-08-11T20:48:19.962Z,97.90
2017-08-11T20:50:46.394Z,97.90
2017-08-11T20:53:12.828Z,97.90
2017-08-11T20:55:39.173Z,97.90
2017-08-11T20:58:05.821Z,97.80
2017-08-11T21:00:32.201Z,97.80
2017-08-11T21:02:58.602Z,97.60
2017-08-11T21:05:25.035Z,97.60
2017-08-11T21:07:51.434Z,97.60
2017-08-11T21:10:17.827Z,97.40
2017-08-11T21:12:44.240Z,97.50
2017-08-11T21:15:10.719Z,97.60
2017-08-11T21:17:37.313Z,97.60
2017-08-11T21:20:03.770Z,97.60
2017-08-11T21:22:30.213Z,97.50
2017-08-11T21:24:56.942Z,97.30
2017-08-11T21:27:23.421Z,97.30
2017-08-11T21:29:49.955Z,97.20
2017-08-11T21:32:16.570Z,97.10
2017-08-11T21:34:43.032Z,97.10
2017-08-11T21:37:09.493Z,97.00
2017-08-11T21:39:36.006Z,96.90
2017-08-11T21:42:02.429Z,96.90
2017-08-11T21:44:28.853Z,96.80
2017-08-11T21:46:55.327Z,96.80
2017-08-11T21:49:21.729Z,96.80
2017-08-11T21:51:48.546Z,96.90
2017-08-11T21:54:14.976Z,96.70
2017-08-11T21:56:41.357Z,96.70
2017-08-11T21:59:07.801Z,96.70
2017-08-11T22:01:34.906Z,96.90
2017-08-11T22:04:01.362Z,96.90
2017-08-11T22:06:39.095Z,96.90
2017-08-11T22:09:05.606Z,96.90
2017-08-11T22:11:32.082Z,97.00
2017-08-11T22:13:58.801Z,97.10
2017-08-11T22:16:25.233Z,97.00
2017-08-11T22:18:51.658Z,97.00
2017-08-11T22:21:18.061Z,97.10
2017-08-11T22:23:44.420Z,97.10
2017-08-11T22:26:10.810Z,96.80
2017-08-11T22:28:37.180Z,96.60
2017-08-11T22:31:03.584Z,96.70
2017-08-11T22:33:30.038Z,96.90
2017-08-11T22:35:56.639Z,97.00
2017-08-11T22:38:23.774Z,96.80
2017-08-11T22:40:50.424Z,96.80
2017-08-11T22:43:16.859Z,96.60
2017-08-11T22:45:43.313Z,96.70
2017-08-11T22:48:09.694Z,96.70
2017-08-11T22:50:36.046Z,96.70
2017-08-11T22:53:02.436Z,96.70
2017-08-11T22:55:28.811Z,96.60
2017-08-11T22:57:55.219Z,96.60
2017-08-11T23:00:21.558Z,96.60
2017-08-11T23:02:47.925Z,96.60
2017-08-11T23:05:15.015Z,96.70
2017-08-11T23:07:41.349Z,96.70
2017-08-11T23:10:07.749Z,96.70
2017-08-11T23:12:34.337Z,96.90
2017-08-11T23:15:00.850Z,96.80
2017-08-11T23:17:27.189Z,96.90
2017-08-11T23:19:53.603Z,96.90
2017-08-11T23:22:20.034Z,96.80
2017-08-11T23:24:46.953Z,96.80
2017-08-11T23:27:13.394Z,96.70
2017-08-11T23:29:39.798Z,96.80
2017-08-11T23:32:06.198Z,96.90
2017-08-11T23:34:32.758Z,97.00
2017-08-11T23:36:59.099Z,97.10
2017-08-11T23:39:25.544Z,97.20
2017-08-11T23:41:51.948Z,97.30
2017-08-11T23:44:18.434Z,97.40
2017-08-11T23:46:44.810Z,97.50
2017-08-11T23:49:11.164Z,97.60
2017-08-11T23:51:37.574Z,97.70
2017-08-11T23:54:03.960Z,97.80
2017-08-11T23:56:30.762Z,97.80
2017-08-11T23:58:57.138Z,97.90
